createdAt,value
2019-02-27T00:00:47.851Z,53.20
2019-02-27T00:03:18.692Z,53.00
2019-02-27T00:05:49.527Z,53.00
2019-02-27T00:08:19.264Z,53.20
2019-02-27T00:10:49.019Z,53.50
2019-02-27T00:13:18.931Z,53.70
2019-02-27T00:15:48.904Z,53.60
2019-02-27T00:18:18.675Z,53.80
2019-02-27T00:20:48.487Z,53.50
2019-02-27T00:23:18.330Z,53.20
2019-02-27T00:25:48.174Z,53.30
2019-02-27T00:28:18.096Z,53.30
2019-02-27T00:30:47.838Z,53.70
2019-02-27T00:33:17.612Z,53.60
2019-02-27T00:35:47.474Z,53.90
2019-02-27T00:38:17.352Z,53.70
2019-02-27T00:40:47.118Z,54.00
2019-02-27T00:43:16.862Z,53.90
2019-02-27T00:45:46.614Z,54.10
2019-02-27T00:48:16.353Z,54.00
2019-02-27T00:50:46.122Z,53.80
2019-02-27T00:53:15.938Z,54.90
2019-02-27T00:55:45.691Z,54.10
2019-02-27T00:58:15.433Z,54.10
2019-02-27T01:00:45.191Z,54.50
2019-02-27T01:03:16.150Z,54.30
2019-02-27T01:05:45.958Z,54.30
2019-02-27T01:08:15.708Z,54.20
2019-02-27T01:10:45.932Z,54.30
2019-02-27T01:13:15.790Z,54.20
2019-02-27T01:15:45.545Z,54.40
2019-02-27T01:18:15.283Z,54.30
2019-02-27T01:20:46.494Z,54.30
2019-02-27T01:23:16.462Z,54.30
2019-02-27T01:25:47.389Z,54.60
2019-02-27T01:28:17.122Z,54.30
2019-02-27T01:30:47.855Z,54.40
2019-02-27T01:33:38.149Z,54.50
2019-02-27T01:36:08.672Z,54.60
2019-02-27T01:38:38.608Z,54.60
2019-02-27T01:41:08.547Z,54.70
2019-02-27T01:43:39.939Z,54.50
2019-02-27T01:46:10.554Z,54.60
2019-02-27T01:48:43.614Z,54.80
2019-02-27T01:51:11.747Z,54.80
2019-02-27T01:53:42.671Z,54.50
2019-02-27T01:56:12.419Z,54.70
2019-02-27T01:58:44.227Z,54.40
2019-02-27T02:01:13.626Z,54.50
2019-02-27T02:03:47.262Z,54.70
2019-02-27T02:06:14.986Z,55.50
2019-02-27T02:08:47.949Z,54.80
2019-02-27T02:11:16.444Z,55.00
2019-02-27T02:13:55.149Z,54.80
2019-02-27T02:16:28.230Z,54.90
2019-02-27T02:19:34.842Z,54.70
2019-02-27T02:22:22.925Z,54.80
2019-02-27T02:25:04.927Z,55.10
2019-02-27T02:27:43.682Z,55.00
2019-02-27T02:30:29.377Z,55.50
2019-02-27T02:33:06.302Z,55.30
2019-02-27T02:36:00.189Z,55.10
2019-02-27T02:41:30.327Z,55.20
2019-02-27T02:44:21.003Z,55.30
2019-02-27T02:47:12.512Z,55.20
2019-02-27T02:50:17.755Z,55.30
2019-02-27T02:52:54.666Z,55.40
2019-02-27T02:55:27.149Z,56.00
2019-02-27T02:58:14.762Z,55.70
2019-02-27T03:00:50.384Z,55.50
2019-02-27T03:03:37.546Z,55.50
2019-02-27T03:06:12.896Z,55.60
2019-02-27T03:08:54.947Z,55.40
2019-02-27T03:11:35.047Z,55.10
2019-02-27T03:14:28.491Z,55.20
2019-02-27T03:17:18.436Z,55.40
2019-02-27T03:20:05.679Z,55.50
2019-02-27T03:26:01.252Z,55.80
2019-02-27T03:28:45.798Z,55.90
2019-02-27T03:31:37.839Z,55.70
2019-02-27T03:34:29.871Z,55.80
2019-02-27T03:37:04.806Z,56.20
2019-02-27T03:39:40.083Z,56.30
2019-02-27T03:42:18.279Z,56.10
2019-02-27T03:45:02.468Z,55.90
2019-02-27T03:47:40.791Z,56.20
2019-02-27T03:50:28.210Z,56.20
2019-02-27T03:53:10.697Z,56.10
2019-02-27T03:56:09.777Z,56.20
2019-02-27T03:58:48.474Z,55.90
2019-02-27T04:01:52.574Z,56.20
2019-02-27T04:07:15.838Z,56.30
2019-02-27T04:09:45.167Z,57.20
2019-02-27T04:12:16.424Z,56.30
2019-02-27T04:14:45.282Z,56.20
2019-02-27T04:17:14.495Z,57.20
2019-02-27T04:19:43.708Z,56.20
2019-02-27T04:22:12.898Z,55.90
2019-02-27T04:24:42.120Z,56.00
2019-02-27T04:27:11.297Z,56.20
2019-02-27T04:29:42.203Z,56.40
2019-02-27T04:32:12.461Z,56.40
2019-02-27T04:34:42.382Z,56.40
2019-02-27T04:37:11.579Z,56.40
2019-02-27T04:39:40.770Z,56.40
2019-02-27T04:42:09.971Z,56.50
2019-02-27T04:44:39.636Z,56.50
2019-02-27T04:47:08.982Z,56.30
2019-02-27T04:49:38.413Z,56.30
2019-02-27T04:52:07.850Z,56.30
2019-02-27T04:54:41.239Z,56.60
2019-02-27T04:57:07.959Z,56.50
2019-02-27T04:59:37.226Z,56.60
2019-02-27T05:02:19.966Z,56.60
2019-02-27T05:04:49.403Z,56.60
2019-02-27T05:07:20.327Z,56.80
2019-02-27T05:09:49.627Z,56.30
2019-02-27T05:12:18.844Z,56.00
2019-02-27T05:14:48.054Z,55.80
2019-02-27T05:17:21.150Z,55.40
2019-02-27T05:19:48.153Z,55.80
2019-02-27T05:22:17.362Z,55.40
2019-02-27T05:24:46.583Z,55.00
2019-02-27T05:27:15.777Z,54.60
2019-02-27T05:29:45.003Z,54.40
2019-02-27T05:32:14.232Z,54.30
2019-02-27T05:34:43.431Z,54.40
2019-02-27T05:37:12.628Z,54.50
2019-02-27T05:39:41.832Z,54.20
2019-02-27T05:42:13.090Z,54.20
2019-02-27T05:44:42.073Z,54.20
2019-02-27T05:47:11.945Z,54.30
2019-02-27T05:49:41.336Z,54.20
2019-02-27T05:52:11.823Z,54.70
2019-02-27T05:54:41.422Z,54.50
2019-02-27T05:57:10.620Z,54.80
2019-02-27T05:59:39.827Z,54.60
2019-02-27T06:02:10.965Z,54.50
2019-02-27T06:04:41.858Z,54.60
2019-02-27T06:07:11.142Z,54.90
2019-02-27T06:09:41.422Z,55.60
2019-02-27T06:12:11.226Z,55.80
2019-02-27T06:14:40.422Z,54.70
2019-02-27T06:17:10.122Z,54.30
2019-02-27T06:19:40.536Z,54.40
2019-02-27T06:22:09.727Z,54.20
2019-02-27T06:24:39.096Z,54.20
2019-02-27T06:27:08.279Z,54.30
2019-02-27T06:29:37.479Z,54.30
2019-02-27T06:32:06.817Z,53.40
2019-02-27T06:34:36.073Z,53.40
2019-02-27T06:37:05.371Z,52.80
2019-02-27T06:39:34.991Z,53.00
2019-02-27T06:42:04.493Z,52.90
2019-02-27T06:44:33.828Z,52.80
2019-02-27T06:47:05.532Z,53.30
2019-02-27T06:49:33.956Z,53.00
2019-02-27T06:52:03.181Z,53.00
2019-02-27T06:54:32.399Z,53.20
2019-02-27T06:57:15.887Z,52.70
2019-02-27T06:59:45.707Z,52.00
2019-02-27T07:02:14.943Z,51.90
2019-02-27T07:04:44.240Z,52.30
2019-02-27T07:07:13.443Z,51.90
2019-02-27T07:09:43.247Z,51.90
2019-02-27T07:12:13.597Z,51.70
2019-02-27T07:14:42.992Z,51.80
2019-02-27T07:17:12.295Z,52.00
2019-02-27T07:19:41.510Z,51.80
2019-02-27T07:22:12.666Z,51.70
2019-02-27T07:24:41.613Z,52.30
2019-02-27T07:27:10.970Z,52.20
2019-02-27T07:29:40.169Z,52.10
2019-02-27T07:32:09.449Z,51.90
2019-02-27T07:34:38.679Z,51.80
2019-02-27T07:37:10.446Z,51.80
2019-02-27T07:39:38.846Z,51.90
2019-02-27T07:42:08.058Z,51.90
2019-02-27T07:44:37.354Z,51.70
2019-02-27T07:47:06.582Z,51.50
2019-02-27T07:49:36.947Z,51.40
2019-02-27T07:52:06.167Z,51.50
2019-02-27T07:54:35.367Z,51.60
2019-02-27T07:57:04.587Z,51.10
2019-02-27T07:59:37.911Z,50.70
2019-02-27T08:02:04.731Z,50.70
2019-02-27T08:04:33.945Z,50.90
2019-02-27T08:07:03.242Z,51.50
2019-02-27T08:09:32.441Z,51.10
2019-02-27T08:12:01.655Z,50.30
2019-02-27T08:14:30.858Z,50.20
2019-02-27T08:17:00.076Z,49.40
2019-02-27T08:19:29.288Z,48.90
2019-02-27T08:21:58.575Z,48.20
2019-02-27T08:24:27.876Z,48.40
2019-02-27T08:26:57.083Z,47.80
2019-02-27T08:29:26.297Z,47.50
2019-02-27T08:31:55.508Z,47.30
2019-02-27T08:34:24.727Z,47.20
2019-02-27T08:36:53.991Z,46.90
2019-02-27T08:39:23.282Z,47.20
2019-02-27T08:41:52.475Z,46.00
2019-02-27T08:44:21.715Z,45.80
2019-02-27T08:47:10.867Z,46.50
2019-02-27T08:49:40.420Z,46.10
2019-02-27T08:52:13.086Z,45.50
2019-02-27T08:54:41.623Z,45.70
2019-02-27T08:57:11.075Z,45.50
2019-02-27T08:59:40.780Z,45.30
2019-02-27T09:02:10.063Z,45.00
2019-02-27T09:04:39.275Z,45.00
2019-02-27T09:07:08.484Z,44.80
2019-02-27T09:09:37.783Z,45.10
2019-02-27T09:12:06.984Z,44.70
2019-02-27T09:14:36.207Z,45.00
2019-02-27T09:17:05.498Z,44.30
2019-02-27T09:19:34.711Z,44.40
2019-02-27T09:22:03.914Z,44.50
2019-02-27T09:24:33.114Z,44.60
2019-02-27T09:27:02.351Z,44.10
2019-02-27T09:29:31.543Z,44.40
2019-02-27T09:32:00.757Z,44.70
2019-02-27T09:34:30.033Z,44.40
2019-02-27T09:36:59.322Z,44.40
2019-02-27T09:39:31.121Z,45.20
2019-02-27T09:41:59.437Z,44.60
2019-02-27T09:44:28.648Z,44.40
2019-02-27T09:46:57.860Z,44.50
2019-02-27T09:49:27.128Z,44.60
2019-02-27T09:51:57.011Z,44.20
2019-02-27T09:54:26.368Z,44.20
2019-02-27T09:56:55.560Z,43.90
2019-02-27T09:59:24.784Z,43.60
2019-02-27T10:01:53.983Z,45.70
2019-02-27T10:04:23.191Z,45.10
2019-02-27T10:07:06.235Z,44.60
2019-02-27T10:09:35.456Z,44.80
2019-02-27T10:12:04.693Z,43.90
2019-02-27T10:14:34.051Z,45.30
2019-02-27T10:17:03.270Z,43.70
2019-02-27T10:19:32.479Z,44.60
2019-02-27T10:22:01.773Z,45.60
2019-02-27T10:24:32.269Z,45.80
2019-02-27T10:27:01.643Z,45.10
2019-02-27T10:29:32.530Z,45.10
2019-02-27T10:32:01.767Z,45.30
2019-02-27T10:34:30.981Z,44.50
2019-02-27T10:37:00.300Z,45.60
2019-02-27T10:39:29.579Z,45.20
2019-02-27T10:41:58.784Z,45.40
2019-02-27T10:44:27.991Z,44.90
2019-02-27T10:46:59.802Z,45.20
2019-02-27T10:49:28.093Z,46.20
2019-02-27T10:51:57.303Z,45.30
2019-02-27T10:54:26.511Z,46.60
2019-02-27T10:56:56.402Z,45.90
2019-02-27T10:59:26.307Z,46.90
2019-02-27T11:01:55.528Z,47.00
2019-02-27T11:04:24.811Z,46.60
2019-02-27T11:06:54.041Z,47.10
2019-02-27T11:09:25.421Z,46.90
2019-02-27T11:11:54.840Z,47.10
2019-02-27T11:14:24.059Z,46.70
2019-02-27T11:16:53.267Z,46.80
2019-02-27T11:19:22.555Z,47.10
2019-02-27T11:21:51.835Z,46.70
2019-02-27T11:24:21.122Z,47.10
2019-02-27T11:26:50.504Z,47.00
2019-02-27T11:29:23.568Z,47.10
2019-02-27T11:31:51.759Z,47.00
2019-02-27T11:34:21.092Z,46.90
2019-02-27T11:36:50.297Z,47.10
2019-02-27T11:39:19.506Z,46.90
2019-02-27T11:41:49.154Z,47.70
2019-02-27T11:44:18.511Z,47.50
2019-02-27T11:46:58.196Z,46.50
2019-02-27T11:49:18.656Z,46.90
2019-02-27T11:51:50.613Z,46.50
2019-02-27T11:54:18.958Z,46.20
2019-02-27T11:56:51.115Z,46.60
2019-02-27T11:59:20.142Z,46.40
2019-02-27T12:01:49.405Z,47.20
2019-02-27T12:04:19.515Z,47.70
2019-02-27T12:06:49.390Z,46.90
2019-02-27T12:09:18.738Z,47.70
2019-02-27T12:11:48.860Z,48.60
2019-02-27T12:14:19.060Z,47.90
2019-02-27T12:16:48.575Z,48.20
2019-02-27T12:19:20.206Z,48.40
2019-02-27T12:21:49.412Z,48.40
2019-02-27T12:24:19.078Z,48.10
2019-02-27T12:27:03.113Z,47.90
2019-02-27T12:29:33.282Z,48.80
2019-02-27T12:32:02.530Z,48.40
2019-02-27T12:34:36.766Z,48.70
2019-02-27T12:37:02.686Z,48.10
2019-02-27T12:39:31.895Z,48.70
2019-02-27T12:42:01.116Z,48.80
2019-02-27T12:44:30.328Z,48.30
2019-02-27T12:46:59.610Z,48.20
2019-02-27T12:49:28.820Z,48.50
2019-02-27T12:51:58.027Z,48.70
2019-02-27T12:54:27.513Z,48.50
2019-02-27T12:56:57.017Z,48.40
2019-02-27T12:59:26.313Z,48.70
2019-02-27T13:01:55.510Z,48.10
2019-02-27T13:04:24.712Z,48.00
2019-02-27T13:06:53.922Z,48.40
2019-02-27T13:09:24.496Z,48.40
2019-02-27T13:11:54.012Z,48.80
2019-02-27T13:14:23.217Z,48.10
2019-02-27T13:16:52.423Z,48.10
2019-02-27T13:19:21.636Z,48.10
2019-02-27T13:21:52.255Z,47.80
2019-02-27T13:24:21.747Z,47.80
2019-02-27T13:26:51.021Z,47.90
2019-02-27T13:29:21.414Z,48.50
2019-02-27T13:31:51.507Z,48.20
2019-02-27T13:34:21.467Z,47.80
2019-02-27T13:36:50.745Z,48.90
2019-02-27T13:39:20.223Z,48.00
2019-02-27T13:41:50.699Z,48.20
2019-02-27T13:44:20.204Z,48.50
2019-02-27T13:46:49.477Z,48.30
2019-02-27T13:49:32.501Z,48.60
2019-02-27T13:52:01.700Z,48.00
2019-02-27T13:54:35.083Z,48.90
2019-02-27T13:57:01.918Z,49.40
2019-02-27T13:59:31.197Z,49.00
2019-02-27T14:02:00.631Z,48.30
2019-02-27T14:04:31.399Z,48.70
2019-02-27T14:07:00.595Z,48.40
2019-02-27T14:09:29.813Z,48.70
2019-02-27T14:11:59.420Z,47.90
2019-02-27T14:14:28.815Z,48.40
2019-02-27T14:16:58.027Z,48.70
2019-02-27T14:19:27.268Z,47.80
2019-02-27T14:21:56.553Z,48.90
2019-02-27T14:24:25.848Z,49.30
2019-02-27T14:26:55.140Z,49.00
2019-02-27T14:29:26.078Z,48.80
2019-02-27T14:31:55.322Z,48.30
2019-02-27T14:34:27.150Z,48.70
2019-02-27T14:36:55.461Z,49.30
2019-02-27T14:39:26.914Z,48.60
2019-02-27T14:41:55.580Z,48.90
2019-02-27T14:44:24.803Z,49.10
2019-02-27T14:46:55.994Z,49.00
2019-02-27T14:49:27.270Z,48.30
2019-02-27T14:51:55.931Z,48.10
2019-02-27T14:54:28.788Z,48.10
2019-02-27T14:56:56.115Z,47.70
2019-02-27T14:59:30.070Z,48.00
2019-02-27T15:01:56.222Z,48.40
2019-02-27T15:04:25.460Z,47.90
2019-02-27T15:06:54.794Z,48.00
2019-02-27T15:09:23.998Z,47.80
2019-02-27T15:11:53.373Z,47.40
2019-02-27T15:14:22.648Z,47.50
2019-02-27T15:16:51.854Z,47.60
2019-02-27T15:19:21.093Z,48.90
2019-02-27T15:21:50.292Z,47.70
2019-02-27T15:24:19.607Z,47.70
2019-02-27T15:26:50.691Z,47.80
2019-02-27T15:29:19.792Z,48.10
2019-02-27T15:31:49.163Z,47.90
2019-02-27T15:34:18.589Z,47.70
2019-02-27T15:36:47.899Z,47.90
2019-02-27T15:39:20.297Z,48.20
2019-02-27T15:41:49.794Z,48.20
2019-02-27T15:44:19.006Z,48.10
2019-02-27T15:46:48.380Z,47.90
2019-02-27T15:49:17.775Z,47.60
2019-02-27T15:51:47.019Z,47.40
2019-02-27T15:54:16.319Z,47.40
2019-02-27T15:56:45.617Z,47.40
2019-02-27T15:59:28.836Z,47.30
2019-02-27T16:02:02.335Z,47.50
2019-02-27T16:04:28.963Z,47.20
2019-02-27T16:06:58.350Z,47.90
2019-02-27T16:09:29.099Z,47.10
2019-02-27T16:11:58.547Z,47.00
2019-02-27T16:14:29.980Z,47.20
2019-02-27T16:16:58.702Z,47.10
2019-02-27T16:19:27.919Z,47.60
2019-02-27T16:21:57.965Z,47.20
2019-02-27T16:24:27.349Z,47.20
2019-02-27T16:26:58.007Z,47.50
2019-02-27T16:29:27.474Z,47.40
2019-02-27T16:31:56.714Z,47.30
2019-02-27T16:34:25.939Z,47.10
2019-02-27T16:36:55.237Z,47.20
2019-02-27T16:39:24.709Z,47.10
2019-02-27T16:41:53.936Z,47.50
2019-02-27T16:44:23.255Z,47.10
2019-02-27T16:46:52.538Z,47.20
2019-02-27T16:49:21.782Z,47.80
2019-02-27T16:51:51.059Z,47.20
2019-02-27T16:54:20.293Z,47.40
2019-02-27T16:56:50.941Z,47.30
2019-02-27T16:59:20.375Z,47.20
2019-02-27T17:02:09.091Z,47.30
2019-02-27T17:04:38.323Z,47.30
2019-02-27T17:07:07.611Z,47.30
2019-02-27T17:09:36.912Z,47.20
2019-02-27T17:12:07.100Z,47.10
2019-02-27T17:14:37.051Z,47.20
2019-02-27T17:17:06.367Z,47.20
2019-02-27T17:19:36.524Z,47.30
2019-02-27T17:22:06.620Z,47.40
2019-02-27T17:24:35.879Z,47.40
2019-02-27T17:27:05.085Z,47.60
2019-02-27T17:29:34.385Z,47.60
2019-02-27T17:32:03.611Z,47.80
2019-02-27T17:34:32.847Z,47.70
2019-02-27T17:37:03.626Z,47.70
2019-02-27T17:39:32.989Z,47.80
2019-02-27T17:42:18.554Z,47.80
2019-02-27T17:44:47.282Z,47.80
2019-02-27T17:47:16.497Z,47.90
2019-02-27T17:50:06.703Z,47.90
2019-02-27T17:52:36.382Z,48.00
2019-02-27T17:55:08.602Z,48.10
2019-02-27T17:57:37.993Z,48.40
2019-02-27T18:00:16.826Z,48.30
2019-02-27T18:02:46.117Z,48.30
2019-02-27T18:05:15.391Z,48.60
2019-02-27T18:07:44.606Z,48.90
2019-02-27T18:10:14.878Z,48.90
2019-02-27T18:12:44.103Z,49.00
2019-02-27T18:15:19.937Z,48.90
2019-02-27T18:17:47.312Z,49.10
2019-02-27T18:20:16.508Z,49.10
2019-02-27T18:22:45.995Z,49.40
2019-02-27T18:25:18.134Z,49.30
2019-02-27T18:27:48.043Z,49.40
2019-02-27T18:30:22.339Z,49.30
2019-02-27T18:32:51.635Z,49.70
2019-02-27T18:35:20.903Z,50.00
2019-02-27T18:37:53.279Z,50.00
2019-02-27T18:40:21.103Z,50.00
2019-02-27T18:42:55.195Z,49.90
2019-02-27T18:45:26.300Z,49.90
2019-02-27T18:47:59.123Z,49.80
2019-02-27T18:50:28.340Z,49.60
2019-02-27T18:52:57.601Z,49.70
2019-02-27T18:55:30.634Z,49.60
2019-02-27T18:57:57.904Z,49.90
2019-02-27T19:00:28.731Z,49.30
2019-02-27T19:03:17.425Z,49.90
2019-02-27T19:05:46.632Z,49.80
2019-02-27T19:08:16.033Z,49.70
2019-02-27T19:10:45.303Z,50.00
2019-02-27T19:13:14.615Z,50.00
2019-02-27T19:15:46.284Z,49.90
2019-02-27T19:18:14.938Z,50.10
2019-02-27T19:20:45.779Z,50.30
2019-02-27T19:23:17.821Z,50.30
2019-02-27T19:25:46.018Z,50.70
2019-02-27T19:28:15.369Z,50.80
2019-02-27T19:30:44.690Z,51.10
2019-02-27T19:33:14.036Z,51.20
2019-02-27T19:35:57.610Z,51.40
2019-02-27T19:38:27.012Z,51.40
2019-02-27T19:40:56.231Z,51.70
2019-02-27T19:43:25.561Z,51.50
2019-02-27T19:45:54.782Z,51.60
2019-02-27T19:48:26.218Z,51.80
2019-02-27T19:50:54.935Z,52.30
2019-02-27T19:53:24.160Z,52.10
2019-02-27T19:55:53.451Z,51.50
2019-02-27T19:58:22.659Z,51.50
2019-02-27T20:00:51.888Z,51.70
2019-02-27T20:03:21.112Z,52.90
2019-02-27T20:05:53.014Z,51.10
2019-02-27T20:08:21.615Z,51.00
2019-02-27T20:10:51.011Z,51.40
2019-02-27T20:13:20.238Z,51.60
2019-02-27T20:15:50.153Z,51.60
2019-02-27T20:18:19.489Z,51.90
2019-02-27T20:20:48.748Z,51.90
2019-02-27T20:23:18.051Z,52.20
2019-02-27T20:25:47.281Z,52.30
2019-02-27T20:28:16.495Z,52.50
2019-02-27T20:30:46.398Z,52.60
2019-02-27T20:33:15.627Z,52.70
2019-02-27T20:35:44.859Z,52.90
2019-02-27T20:38:16.138Z,53.00
2019-02-27T20:40:45.001Z,53.10
2019-02-27T20:43:15.851Z,53.30
2019-02-27T20:45:45.080Z,53.40
2019-02-27T20:48:14.376Z,53.60
2019-02-27T20:50:49.303Z,53.50
2019-02-27T20:53:20.933Z,53.30
2019-02-27T20:56:08.874Z,53.50
2019-02-27T20:58:38.111Z,53.50
2019-02-27T21:01:11.127Z,53.50
2019-02-27T21:03:39.791Z,53.40
2019-02-27T21:06:09.016Z,53.20
2019-02-27T21:08:38.347Z,53.40
2019-02-27T21:11:07.647Z,53.30
2019-02-27T21:13:36.880Z,53.50
2019-02-27T21:16:09.364Z,53.40
2019-02-27T21:18:38.483Z,53.30
2019-02-27T21:21:07.715Z,53.70
2019-02-27T21:23:36.987Z,53.60
2019-02-27T21:26:06.296Z,53.70
2019-02-27T21:28:35.538Z,54.10
2019-02-27T21:31:04.750Z,53.90
2019-02-27T21:33:33.966Z,53.80
2019-02-27T21:36:03.744Z,53.70
2019-02-27T21:38:34.440Z,54.00
2019-02-27T21:41:03.667Z,53.90
2019-02-27T21:43:33.770Z,54.00
2019-02-27T21:46:03.062Z,53.90
2019-02-27T21:48:33.263Z,53.70
2019-02-27T21:51:02.490Z,53.80
2019-02-27T21:53:31.707Z,53.70
2019-02-27T21:56:00.934Z,53.70
2019-02-27T21:58:32.842Z,53.70
2019-02-27T22:01:01.954Z,53.60
2019-02-27T22:03:35.274Z,53.80
2019-02-27T22:06:03.415Z,53.80
2019-02-27T22:08:32.722Z,53.90
2019-02-27T22:11:02.115Z,53.80
2019-02-27T22:13:32.322Z,53.80
2019-02-27T22:16:01.742Z,53.80
2019-02-27T22:18:31.041Z,54.00
2019-02-27T22:21:00.417Z,53.80
2019-02-27T22:23:29.740Z,53.80
2019-02-27T22:26:03.370Z,54.10
2019-02-27T22:28:51.131Z,54.00
2019-02-27T22:31:21.056Z,54.00
2019-02-27T22:33:53.068Z,54.00
2019-02-27T22:36:21.378Z,54.00
2019-02-27T22:38:51.671Z,54.10
2019-02-27T22:41:21.030Z,54.00
2019-02-27T22:43:50.286Z,54.20
2019-02-27T22:46:19.498Z,54.50
2019-02-27T22:48:48.720Z,53.80
2019-02-27T22:51:19.066Z,54.20
2019-02-27T22:53:48.307Z,54.30
2019-02-27T22:56:17.583Z,53.90
2019-02-27T22:58:49.065Z,53.90
2019-02-27T23:01:21.523Z,54.10
2019-02-27T23:03:55.029Z,54.20
2019-02-27T23:06:24.578Z,54.20
2019-02-27T23:08:54.429Z,54.40
2019-02-27T23:11:24.617Z,54.40
2019-02-27T23:13:54.011Z,54.50
2019-02-27T23:16:23.658Z,54.70
2019-02-27T23:18:53.214Z,54.50
2019-02-27T23:21:22.503Z,54.40
2019-02-27T23:23:53.633Z,54.50
2019-02-27T23:26:23.035Z,54.60
2019-02-27T23:28:52.800Z,54.70
2019-02-27T23:31:23.393Z,54.60
2019-02-27T23:33:52.931Z,54.70
2019-02-27T23:36:22.860Z,54.60
2019-02-27T23:38:52.250Z,54.80
2019-02-27T23:41:23.210Z,54.80
2019-02-27T23:43:52.439Z,54.70
2019-02-27T23:46:22.290Z,55.00
2019-02-27T23:48:51.636Z,55.10
2019-02-27T23:51:20.935Z,55.00
2019-02-27T23:53:50.217Z,55.50
2019-02-27T23:56:20.598Z,55.80
2019-02-27T23:58:50.074Z,55.50
